createdAt,value
2022-12-18T00:04:35.408Z,88.46
2022-12-18T00:07:23.081Z,86.30
2022-12-18T00:10:10.647Z,87.07
2022-12-18T00:12:58.229Z,87.76
2022-12-18T00:15:45.868Z,86.48
2022-12-18T00:18:33.497Z,87.29
2022-12-18T00:21:21.066Z,86.99
2022-12-18T00:24:08.777Z,87.02
2022-12-18T00:26:56.369Z,86.23
2022-12-18T00:29:43.970Z,83.38
2022-12-18T00:32:31.550Z,82.31
2022-12-18T00:35:19.246Z,79.26
2022-12-18T00:38:06.825Z,78.40
2022-12-18T00:40:54.421Z,78.49
2022-12-18T00:43:42.248Z,79.38
2022-12-18T00:46:29.998Z,78.74
2022-12-18T00:49:17.551Z,78.29
2022-12-18T00:52:07.142Z,78.86
2022-12-18T00:54:54.702Z,80.04
2022-12-18T00:57:42.426Z,79.84
2022-12-18T01:00:30.049Z,79.95
2022-12-18T01:03:17.682Z,77.54
2022-12-18T01:06:05.267Z,78.53
2022-12-18T01:08:52.868Z,74.93
2022-12-18T01:11:40.428Z,72.36
2022-12-18T01:14:28.133Z,71.21
2022-12-18T01:17:15.699Z,71.98
2022-12-18T01:20:03.334Z,71.15
2022-12-18T01:22:50.891Z,69.51
2022-12-18T01:25:38.470Z,68.54
2022-12-18T01:28:26.065Z,67.78
2022-12-18T01:31:13.671Z,67.07
2022-12-18T01:34:01.284Z,65.70
2022-12-18T01:36:48.910Z,64.58
2022-12-18T01:39:36.494Z,63.08
2022-12-18T01:42:24.095Z,62.90
2022-12-18T01:45:11.683Z,61.42
2022-12-18T01:47:59.241Z,60.88
2022-12-18T01:50:48.842Z,60.39
2022-12-18T01:53:36.728Z,60.27
2022-12-18T01:56:24.596Z,59.84
2022-12-18T01:59:12.165Z,59.24
2022-12-18T02:01:59.973Z,58.83
2022-12-18T02:04:49.852Z,59.64
2022-12-18T02:07:37.474Z,59.53
2022-12-18T02:10:25.058Z,59.42
2022-12-18T02:13:12.649Z,59.99
2022-12-18T02:16:00.226Z,59.52
2022-12-18T02:18:47.812Z,59.74
2022-12-18T02:21:35.402Z,62.41
2022-12-18T02:24:23.012Z,62.30
2022-12-18T02:27:10.614Z,62.94
2022-12-18T02:29:59.108Z,62.20
2022-12-18T02:32:46.909Z,61.63
2022-12-18T02:35:34.497Z,61.51
2022-12-18T02:38:22.083Z,60.98
2022-12-18T02:41:09.665Z,60.44
2022-12-18T02:43:57.259Z,60.40
2022-12-18T02:46:45.064Z,60.17
2022-12-18T02:49:32.650Z,59.51
2022-12-18T02:52:20.207Z,59.30
2022-12-18T02:55:07.796Z,58.59
2022-12-18T02:57:55.350Z,59.42
2022-12-18T03:00:42.971Z,58.97
2022-12-18T03:03:30.654Z,58.41
2022-12-18T03:06:18.348Z,58.11
2022-12-18T03:09:05.940Z,59.04
2022-12-18T03:11:53.521Z,60.67
2022-12-18T03:14:41.118Z,60.11
2022-12-18T03:17:28.698Z,60.37
2022-12-18T03:20:16.266Z,59.49
2022-12-18T03:23:03.836Z,59.90
2022-12-18T03:25:51.411Z,59.33
2022-12-18T03:28:38.975Z,58.70
2022-12-18T03:31:26.635Z,59.42
2022-12-18T03:34:14.209Z,59.29
2022-12-18T03:37:01.862Z,58.54
2022-12-18T03:39:49.423Z,58.30
2022-12-18T03:42:36.998Z,58.95
2022-12-18T03:45:24.577Z,58.48
2022-12-18T03:48:12.173Z,58.41
2022-12-18T03:50:59.751Z,58.56
2022-12-18T03:53:47.311Z,58.28
2022-12-18T03:56:34.901Z,59.37
2022-12-18T03:59:22.525Z,59.53
2022-12-18T04:02:10.223Z,59.27
2022-12-18T04:04:57.898Z,58.34
2022-12-18T04:07:45.491Z,58.53
2022-12-18T04:10:33.063Z,61.26
2022-12-18T04:13:40.963Z,61.10
2022-12-18T04:16:44.195Z,60.27
2022-12-18T04:19:31.771Z,60.41
2022-12-18T04:22:19.342Z,61.34
2022-12-18T04:25:08.117Z,61.48
2022-12-18T04:27:55.717Z,65.09
2022-12-18T04:30:43.362Z,65.34
2022-12-18T04:33:31.002Z,63.35
2022-12-18T04:36:18.602Z,62.31
2022-12-18T04:39:06.166Z,61.09
2022-12-18T04:41:53.750Z,61.07
2022-12-18T04:44:41.322Z,60.46
2022-12-18T04:47:28.914Z,59.47
2022-12-18T04:50:16.497Z,59.20
2022-12-18T04:53:04.053Z,58.76
2022-12-18T04:55:51.660Z,58.64
2022-12-18T04:58:39.223Z,58.28
2022-12-18T05:01:32.582Z,57.85
2022-12-18T05:04:22.042Z,58.44
2022-12-18T05:07:09.630Z,58.55
2022-12-18T05:09:57.210Z,57.99
2022-12-18T05:12:44.786Z,57.69
2022-12-18T05:15:32.366Z,58.27
2022-12-18T05:18:19.940Z,58.68
2022-12-18T05:21:07.548Z,59.04
2022-12-18T05:23:55.117Z,58.71
2022-12-18T05:26:42.730Z,58.15
2022-12-18T05:29:30.297Z,59.85
2022-12-18T05:32:17.869Z,59.27
2022-12-18T05:35:05.457Z,58.92
2022-12-18T05:37:53.148Z,59.98
2022-12-18T05:40:42.730Z,59.75
2022-12-18T05:43:30.410Z,60.81
2022-12-18T05:46:20.044Z,60.46
2022-12-18T05:49:07.701Z,60.98
2022-12-18T05:51:55.290Z,60.44
2022-12-18T05:54:42.896Z,60.98
2022-12-18T05:57:30.493Z,61.96
2022-12-18T06:00:18.060Z,61.28
2022-12-18T06:03:05.737Z,60.99
2022-12-18T06:05:53.398Z,61.45
2022-12-18T06:08:46.039Z,60.37
2022-12-18T06:11:34.147Z,60.18
2022-12-18T06:14:21.821Z,60.42
2022-12-18T06:17:09.413Z,63.51
2022-12-18T06:19:57.029Z,61.86
2022-12-18T06:22:44.613Z,63.33
2022-12-18T06:25:32.192Z,67.00
2022-12-18T06:28:19.773Z,67.81
2022-12-18T06:31:08.436Z,71.17
2022-12-18T06:33:56.058Z,72.08
2022-12-18T06:36:43.649Z,75.91
2022-12-18T06:39:31.242Z,75.82
2022-12-18T06:42:18.930Z,76.34
2022-12-18T06:45:06.538Z,74.33
2022-12-18T06:47:54.246Z,75.14
2022-12-18T06:50:41.837Z,74.92
2022-12-18T06:53:29.503Z,71.75
2022-12-18T06:56:17.080Z,69.73
2022-12-18T06:59:04.686Z,67.50
2022-12-18T07:01:52.432Z,66.42
2022-12-18T07:04:40.160Z,65.69
2022-12-18T07:07:27.736Z,64.69
2022-12-18T07:10:15.314Z,64.17
2022-12-18T07:13:02.866Z,63.34
2022-12-18T07:15:50.493Z,63.07
2022-12-18T07:18:38.085Z,62.44
2022-12-18T07:21:25.702Z,62.50
2022-12-18T07:24:13.270Z,61.65
2022-12-18T07:27:00.884Z,61.32
2022-12-18T07:29:48.477Z,60.66
2022-12-18T07:32:36.065Z,60.58
2022-12-18T07:35:25.310Z,59.97
2022-12-18T07:38:13.105Z,59.99
2022-12-18T07:41:00.735Z,59.65
2022-12-18T07:43:48.311Z,59.83
2022-12-18T07:46:37.895Z,59.43
2022-12-18T07:49:25.460Z,58.67
2022-12-18T07:52:13.046Z,58.95
2022-12-18T07:55:00.625Z,59.13
2022-12-18T07:57:51.269Z,58.67
2022-12-18T08:00:40.184Z,58.96
2022-12-18T08:03:27.799Z,59.09
2022-12-18T08:06:15.405Z,59.15
2022-12-18T08:09:03.030Z,58.87
2022-12-18T08:11:50.646Z,59.23
2022-12-18T08:14:38.229Z,60.16
2022-12-18T08:17:25.811Z,62.64
2022-12-18T08:20:13.437Z,61.43
2022-12-18T08:23:01.039Z,62.08
2022-12-18T08:25:48.663Z,62.89
2022-12-18T08:28:36.273Z,61.73
2022-12-18T08:31:23.916Z,62.05
2022-12-18T08:34:12.159Z,62.76
2022-12-18T08:36:59.730Z,63.11
2022-12-18T08:39:47.336Z,61.98
2022-12-18T08:42:34.914Z,62.61
2022-12-18T08:45:22.508Z,64.96
2022-12-18T08:48:10.205Z,64.85
2022-12-18T08:50:57.788Z,64.30
2022-12-18T08:53:45.396Z,63.74
2022-12-18T08:56:32.949Z,63.10
2022-12-18T08:59:20.790Z,63.15
2022-12-18T09:02:08.537Z,63.12
2022-12-18T09:04:57.714Z,62.39
2022-12-18T09:07:45.495Z,62.47
2022-12-18T09:10:35.644Z,63.89
2022-12-18T09:13:26.407Z,65.55
2022-12-18T09:16:13.993Z,65.68
2022-12-18T09:19:01.578Z,64.14
2022-12-18T09:21:49.185Z,63.38
2022-12-18T09:24:36.743Z,62.63
2022-12-18T09:27:24.315Z,64.15
2022-12-18T09:30:11.893Z,62.90
2022-12-18T09:32:59.698Z,62.53
2022-12-18T09:35:47.943Z,61.60
2022-12-18T09:38:35.734Z,62.89
2022-12-18T09:41:23.306Z,62.79
2022-12-18T09:44:10.922Z,63.49
2022-12-18T09:46:58.505Z,62.40
2022-12-18T09:49:46.182Z,61.49
2022-12-18T09:52:35.759Z,61.38
2022-12-18T09:55:23.467Z,61.82
2022-12-18T09:58:11.036Z,62.56
2022-12-18T10:00:58.621Z,63.08
2022-12-18T10:03:46.228Z,62.13
2022-12-18T10:06:33.808Z,61.29
2022-12-18T10:09:21.361Z,60.71
2022-12-18T10:11:56.654Z,61.31
2022-12-18T10:14:24.076Z,60.33
2022-12-18T10:43:19.875Z,61.90
2022-12-18T10:46:06.027Z,61.47
2022-12-18T10:48:53.661Z,63.16
2022-12-18T10:51:41.238Z,62.01
2022-12-18T10:54:28.812Z,61.19
2022-12-18T10:57:16.391Z,60.27
2022-12-18T11:00:03.957Z,60.12
2022-12-18T11:02:51.668Z,61.89
2022-12-18T11:05:39.374Z,69.22
2022-12-18T11:08:26.982Z,72.32
2022-12-18T11:11:14.552Z,75.19
2022-12-18T11:14:02.154Z,76.47
2022-12-18T11:17:23.766Z,73.10
2022-12-18T11:19:57.255Z,74.65
2022-12-18T11:22:44.850Z,74.72
2022-12-18T11:25:34.492Z,76.47
2022-12-18T11:28:23.161Z,79.81
2022-12-18T11:31:10.886Z,82.87
2022-12-18T11:34:27.448Z,84.21
2022-12-18T11:37:06.035Z,82.61
2022-12-18T11:39:53.626Z,85.39
2022-12-18T11:42:41.189Z,84.32
2022-12-18T11:45:28.762Z,82.88
2022-12-18T11:48:16.399Z,78.29
2022-12-18T11:51:03.960Z,73.86
2022-12-18T11:53:51.561Z,70.23
2022-12-18T11:56:39.185Z,67.29
2022-12-18T11:59:26.757Z,65.51
2022-12-18T12:02:14.387Z,67.74
2022-12-18T12:05:02.082Z,73.87
2022-12-18T12:07:49.685Z,75.97
2022-12-18T12:10:37.249Z,78.21
2022-12-18T12:13:24.854Z,76.28
2022-12-18T12:16:12.455Z,81.80
2022-12-18T12:19:00.344Z,84.50
2022-12-18T12:21:47.920Z,85.34
2022-12-18T12:24:35.519Z,86.73
2022-12-18T12:27:23.130Z,84.63
2022-12-18T12:30:10.723Z,84.48
2022-12-18T12:32:58.284Z,81.49
2022-12-18T12:35:45.871Z,80.38
2022-12-18T12:38:33.471Z,85.52
2022-12-18T12:41:21.055Z,88.70
2022-12-18T12:44:08.599Z,87.83
2022-12-18T12:46:56.544Z,88.94
2022-12-18T12:49:44.109Z,87.03
2022-12-18T12:52:33.854Z,87.11
2022-12-18T12:55:21.482Z,87.14
2022-12-18T12:58:10.150Z,83.31
2022-12-18T13:00:59.088Z,79.88
2022-12-18T13:03:47.467Z,80.36
2022-12-18T13:06:36.905Z,81.62
2022-12-18T13:09:26.867Z,73.64
2022-12-18T13:12:14.443Z,74.75
2022-12-18T13:15:02.093Z,72.10
2022-12-18T13:17:49.688Z,69.42
2022-12-18T13:20:37.279Z,67.77
2022-12-18T13:23:24.878Z,66.17
2022-12-18T13:26:12.462Z,64.86
2022-12-18T13:29:00.085Z,62.77
2022-12-18T13:31:48.057Z,61.70
2022-12-18T13:34:36.297Z,61.83
2022-12-18T13:37:24.279Z,60.22
2022-12-18T13:40:11.892Z,59.12
2022-12-18T13:42:59.495Z,59.26
2022-12-18T13:45:47.562Z,59.29
2022-12-18T13:48:35.375Z,58.72
2022-12-18T13:51:23.077Z,59.02
2022-12-18T13:54:10.655Z,63.52
2022-12-18T13:56:58.260Z,64.74
2022-12-18T13:59:45.959Z,64.55
2022-12-18T14:02:34.324Z,67.24
2022-12-18T14:05:22.015Z,69.02
2022-12-18T14:08:09.632Z,69.43
2022-12-18T14:10:57.226Z,68.85
2022-12-18T14:13:44.825Z,71.13
2022-12-18T14:16:32.522Z,72.68
2022-12-18T14:19:20.540Z,75.04
2022-12-18T14:22:08.122Z,76.30
2022-12-18T14:24:55.736Z,77.32
2022-12-18T14:27:43.340Z,76.11
2022-12-18T14:30:30.970Z,75.38
2022-12-18T14:33:18.563Z,75.11
2022-12-18T14:36:06.190Z,77.79
2022-12-18T14:38:53.785Z,79.26
2022-12-18T14:41:41.384Z,80.10
2022-12-18T14:44:39.114Z,78.46
2022-12-18T14:47:36.544Z,78.92
2022-12-18T14:50:24.123Z,76.14
2022-12-18T14:53:11.709Z,74.20
2022-12-18T14:55:59.326Z,73.72
2022-12-18T14:58:47.170Z,71.69
2022-12-18T15:01:34.832Z,74.50
2022-12-18T15:04:22.519Z,73.37
2022-12-18T15:07:10.100Z,71.98
2022-12-18T15:09:57.888Z,69.47
2022-12-18T15:12:45.467Z,66.87
2022-12-18T15:15:33.067Z,65.03
2022-12-18T15:18:20.641Z,64.21
2022-12-18T15:21:08.247Z,64.44
2022-12-18T15:23:55.814Z,65.54
2022-12-18T15:26:43.410Z,65.67
2022-12-18T15:29:30.994Z,64.49
2022-12-18T15:32:18.589Z,63.35
2022-12-18T15:35:06.169Z,63.11
2022-12-18T15:37:53.759Z,62.45
2022-12-18T15:40:41.326Z,61.49
2022-12-18T15:43:29.002Z,60.77
2022-12-18T15:46:16.616Z,61.00
2022-12-18T15:49:04.253Z,61.53
2022-12-18T15:51:51.844Z,61.31
2022-12-18T15:54:39.478Z,61.11
2022-12-18T15:57:27.038Z,60.74
2022-12-18T16:00:14.740Z,60.22
2022-12-18T16:03:02.494Z,59.83
2022-12-18T16:05:50.176Z,61.71
2022-12-18T16:08:37.776Z,60.91
2022-12-18T16:11:27.086Z,59.94
2022-12-18T16:14:14.688Z,59.99
2022-12-18T16:17:02.269Z,59.56
2022-12-18T16:19:49.848Z,59.52
2022-12-18T16:22:37.434Z,59.49
2022-12-18T16:25:25.007Z,59.72
2022-12-18T16:28:12.609Z,58.92
2022-12-18T16:31:00.228Z,58.40
2022-12-18T16:33:47.800Z,57.69
2022-12-18T16:36:35.387Z,57.25
2022-12-18T16:39:22.985Z,56.76
2022-12-18T16:42:11.812Z,58.71
2022-12-18T16:44:59.379Z,58.62
2022-12-18T16:47:46.981Z,58.55
2022-12-18T16:50:34.553Z,59.34
2022-12-18T16:53:22.117Z,60.15
2022-12-18T16:56:09.695Z,59.70
2022-12-18T16:58:57.294Z,59.35
2022-12-18T17:01:44.974Z,58.61
2022-12-18T17:04:32.682Z,57.87
2022-12-18T17:07:20.293Z,57.70
2022-12-18T17:10:07.875Z,58.52
2022-12-18T17:12:55.746Z,58.82
2022-12-18T17:15:43.387Z,59.90
2022-12-18T17:18:31.002Z,60.46
2022-12-18T17:21:18.587Z,60.86
2022-12-18T17:24:06.177Z,62.04
2022-12-18T17:26:53.774Z,60.86
2022-12-18T17:29:47.159Z,64.52
2022-12-18T17:32:36.202Z,65.70
2022-12-18T17:35:23.811Z,68.08
2022-12-18T17:38:11.397Z,67.35
2022-12-18T17:40:58.963Z,75.79
2022-12-18T17:43:46.539Z,79.23
2022-12-18T17:46:34.204Z,76.45
2022-12-18T17:49:21.877Z,69.80
2022-12-18T17:52:09.491Z,67.05
2022-12-18T17:54:57.098Z,64.12
2022-12-18T17:57:44.693Z,62.65
2022-12-18T18:00:32.277Z,60.59
2022-12-18T18:03:20.063Z,61.16
2022-12-18T18:06:07.786Z,62.07
2022-12-18T18:08:56.441Z,66.85
2022-12-18T18:11:44.129Z,66.71
2022-12-18T18:14:31.708Z,64.14
2022-12-18T18:17:19.289Z,62.28
2022-12-18T18:20:06.878Z,61.06
2022-12-18T18:22:54.519Z,60.10
2022-12-18T18:25:42.107Z,60.08
2022-12-18T18:28:29.763Z,60.45
2022-12-18T18:31:17.502Z,58.75
2022-12-18T18:34:05.286Z,58.83
2022-12-18T18:36:52.877Z,58.94
2022-12-18T18:39:40.483Z,58.54
2022-12-18T18:42:28.071Z,57.67
2022-12-18T18:45:15.657Z,57.86
2022-12-18T18:48:03.240Z,57.00
2022-12-18T18:50:50.822Z,56.94
2022-12-18T18:53:40.685Z,57.12
2022-12-18T18:59:36.075Z,56.56
2022-12-18T19:02:23.756Z,56.60
2022-12-18T19:05:11.438Z,55.93
2022-12-18T19:07:59.026Z,55.67
2022-12-18T19:10:46.646Z,56.29
2022-12-18T19:13:34.270Z,56.99
2022-12-18T19:16:21.965Z,56.77
2022-12-18T19:19:11.698Z,56.42
2022-12-18T19:21:59.437Z,59.05
2022-12-18T19:24:47.018Z,59.70
2022-12-18T19:27:34.656Z,61.30
2022-12-18T19:30:22.225Z,64.97
2022-12-18T19:33:34.525Z,65.50
2022-12-18T19:36:17.453Z,66.42
2022-12-18T19:39:05.252Z,65.95
2022-12-18T19:41:53.001Z,64.11
2022-12-18T19:44:41.842Z,63.00
2022-12-18T19:47:29.390Z,61.44
2022-12-18T19:50:16.991Z,59.82
2022-12-18T19:53:04.642Z,59.44
2022-12-18T19:55:54.540Z,59.10
2022-12-18T19:58:42.491Z,58.34
2022-12-18T20:01:30.420Z,57.15
2022-12-18T20:04:18.193Z,57.56
2022-12-18T20:07:05.795Z,58.01
2022-12-18T20:10:02.613Z,59.10
2022-12-18T20:12:53.065Z,59.03
2022-12-18T20:15:45.249Z,59.54
2022-12-18T20:18:33.183Z,59.36
2022-12-18T20:21:20.893Z,58.95
2022-12-18T20:24:08.497Z,58.65
2022-12-18T20:26:56.146Z,59.54
2022-12-18T20:29:43.737Z,59.69
2022-12-18T20:32:36.784Z,60.75
2022-12-18T20:35:24.754Z,60.52
2022-12-18T20:38:13.046Z,61.17
2022-12-18T20:41:01.014Z,61.26
2022-12-18T20:43:48.574Z,60.37
2022-12-18T20:46:36.147Z,60.66
2022-12-18T20:49:23.696Z,61.99
2022-12-18T20:52:11.288Z,61.46
2022-12-18T20:54:58.861Z,59.64
2022-12-18T20:57:48.213Z,58.94
2022-12-18T21:00:35.777Z,59.19
2022-12-18T21:03:23.392Z,60.83
2022-12-18T21:06:11.007Z,60.92
2022-12-18T21:08:58.554Z,60.42
2022-12-18T21:11:46.124Z,61.38
2022-12-18T21:14:35.698Z,62.23
2022-12-18T21:17:23.270Z,61.52
2022-12-18T21:20:10.938Z,61.00
2022-12-18T21:23:13.200Z,59.82
2022-12-18T21:26:04.374Z,59.45
2022-12-18T21:28:51.925Z,59.46
2022-12-18T21:31:39.834Z,58.38
2022-12-18T21:34:27.390Z,58.71
2022-12-18T21:37:14.942Z,59.26
2022-12-18T21:40:02.505Z,61.68
2022-12-18T21:42:50.077Z,60.07
2022-12-18T21:45:37.655Z,59.41
2022-12-18T21:48:25.210Z,60.47
2022-12-18T21:51:12.763Z,61.11
2022-12-18T21:54:00.309Z,60.15
2022-12-18T21:56:49.866Z,60.75
2022-12-18T21:59:37.414Z,61.26
2022-12-18T22:02:25.216Z,61.54
2022-12-18T22:05:12.910Z,59.62
2022-12-18T22:08:00.983Z,61.06
2022-12-18T22:10:48.548Z,60.57
2022-12-18T22:13:36.138Z,60.44
2022-12-18T22:16:23.730Z,60.49
2022-12-18T22:19:11.337Z,60.04
2022-12-18T22:21:58.961Z,58.50
2022-12-18T22:24:46.535Z,59.96
2022-12-18T22:27:34.074Z,65.58
2022-12-18T22:30:21.654Z,65.61
2022-12-18T22:33:09.258Z,68.82
2022-12-18T22:35:56.861Z,70.37
2022-12-18T22:38:44.425Z,70.16
2022-12-18T22:41:32.003Z,67.13
2022-12-18T22:44:20.372Z,65.46
2022-12-18T22:47:07.977Z,64.76
2022-12-18T22:49:55.597Z,63.21
2022-12-18T22:52:43.181Z,61.93
2022-12-18T22:55:32.757Z,60.91
2022-12-18T22:58:20.337Z,60.02
2022-12-18T23:01:07.972Z,59.19
2022-12-18T23:03:55.634Z,57.95
2022-12-18T23:06:43.265Z,58.42
2022-12-18T23:09:30.865Z,59.09
2022-12-18T23:12:18.427Z,62.00
2022-12-18T23:15:06.083Z,60.89
2022-12-18T23:17:53.672Z,61.91
2022-12-18T23:20:41.256Z,61.44
2022-12-18T23:23:29.203Z,61.75
2022-12-18T23:26:16.766Z,63.42
2022-12-18T23:29:04.346Z,63.00
2022-12-18T23:31:51.947Z,61.57
2022-12-18T23:34:39.590Z,62.33
2022-12-18T23:37:57.121Z,61.60
2022-12-18T23:40:34.655Z,62.85
2022-12-18T23:43:22.297Z,61.62
2022-12-18T23:46:09.936Z,61.12
2022-12-18T23:48:57.535Z,62.71
2022-12-18T23:51:45.163Z,62.36
2022-12-18T23:54:33.740Z,63.77
2022-12-18T23:57:21.403Z,62.89
